Pagrindinis puslapis
METAR-TAF:

METAR-TAF

Oro uostai :

Marianhamina, Suomija

platuma: 60-07N, ilguma: 019-54E, Aukštis: 6 m

Dabartinis oras

Ataskaita buvo paskelbta 1 valandą ir 25 minutes, ne 03:50 UTC
Vėjas 9 kt iš Pietvakarių, svyruoja nuo Pietų ir Vakarų
Temperatūra 4°C
Drėgmė 93%
Slėgis 975 hPa
Matomumas 10 km arba daugiau
Mažai debesys ne aukštis 1900 ft

METAR: EFMA 300350Z AUTO 23009KT 180V260 9999 FEW019 04/03 Q0975

Laikas: 07:15 (05:15 UTC)

Prognozė

Ataskaita buvo paskelbta 2 valandos ir 47 minutes, ne 02:28 UTC
Prognozė galioja nuo 30 metu 03 UTC su 30 metu 12 UTC
Vėjas 10 kt iš Vakarų/Pietvakarių su gūsio iki 20 kt
Matomumas 10 km arba daugiau
Apsiniaukę ne aukštis 1000 ft
Tapsmas
nuo 30 metu 03 UTC su 30 metu 05 UTC
Su prošvaistėmis ne aukštis 1500 ft

TAF: EFMA 300228Z 3003/3012 25010G20KT 9999 OVC010 BECMG 3003/3005 BKN015

Orai ataskaitas ir orų prognozės (METAR, TAF).

turimą stotys yra geltonos ir raudonos taškus žemėlapyje.

Perkelti pele per norėdami pamatyti stoties vardą.

Tada spustelėkite, norėdami matyti oro stebėjimo ir prognozės.

Norėdami pakeisti žemėlapį: spustelėkite ant žalios mygtukų su juodo kryžiaus žemyn,; žalią mygtuką su brūkšneliu, jei norite nutolinti; arba žalių rodyklių gretimoms žemėlapius.


METAR-TAF: